This is the latest recevied weather packets stored in our database for station/object F1ZFG-13. If no packets are shown the sender has not sent any weather packets the latest 10 day(s).
| Time | Temp. | Humidity | Pressure | Rain* | Wind** | Luminosity | Snow |
|---|---|---|---|---|---|---|---|
| 1788079692 | 22.22° C | 58% | 1017.1 hPa | 0 mm | - | - | - |
| 1788076737 | 20° C | 72% | 1017.1 hPa | 0 mm | - | - | - |
| 1788073634 | 20° C | 65% | 1017.2 hPa | 0 mm | - | - | - |
| 1788070334 | 17.78° C | 76% | 1016.9 hPa | 0 mm | - | - | - |
| 1788066837 | 16.67° C | 81% | 1016.4 hPa | 0 mm | - | - | - |
| 1788063462 | 16.67° C | 81% | 1016.3 hPa | 0 mm | - | - | - |
| 1788060180 | 17.22° C | 81% | 1016.5 hPa | 0 mm | - | - | - |
| 1788057117 | 17.78° C | 78% | 1016.8 hPa | 0 mm | - | - | - |
| 1788053844 | 18.33° C | 72% | 1017 hPa | 0 mm | - | - | - |
| 1788050877 | 17.78° C | 78% | 1017 hPa | 0 mm | - | - | - |
| 1788047442 | 18.33° C | 74% | 1016.9 hPa | 0 mm | - | - | - |
| 1788044389 | 18.89° C | 72% | 1017 hPa | 0 mm | - | - | - |
| 1788041184 | 18.89° C | 72% | 1017 hPa | 0 mm | - | - | - |
| 1788038037 | 20° C | 68% | 1016.9 hPa | 0 mm | - | - | - |
| 1788034932 | 20.56° C | 65% | 1016.8 hPa | 0 mm | - | - | - |
| 1788031932 | 21.67° C | 60% | 1016.3 hPa | 0 mm | - | - | - |
| 1788028420 | 22.22° C | 57% | 1015.4 hPa | 0 mm | - | - | - |
| 1788025177 | 23.89° C | 47% | 1015.2 hPa | 0 mm | - | - | - |
| 1788021684 | 25° C | 42% | 1015.3 hPa | 0 mm | - | - | - |
| 1788018427 | 25.56° C | 40% | 1015.5 hPa | 0 mm | - | - | - |
| 1788014864 | 25.56° C | 40% | 1016 hPa | 0 mm | - | - | - |
| 1788011559 | 25° C | 42% | 1016.5 hPa | 0 mm | - | - | - |
| 1788008379 | 25.56° C | 40% | 1016.6 hPa | 0 mm | - | - | - |
| 1788005154 | 25.56° C | 40% | 1016.6 hPa | 0 mm | - | - | - |
| 1788001807 | 24.44° C | 45% | 1017.1 hPa | 0 mm | - | - | - |
* Rain latest hour (hover to see other rain measurements)
** Current wind speed in m/s (hover to see current wind gust speed)